This demonstration page uses our WeatherBlox Daily Observations layout. Learn more.

41.55636, -103.73856

Hourly Observations for September 10, 2017

Temp ( °F °C ) Dew Point ( °F °C ) Humidity (%) Winds ( mph kmh ) Pressure ( in mb ) Visibility ( mi km ) Precip ( " mm )
12:53 am 00:53 Clear 61 16.1 51 10.6 70 70 ESE 3 6 29.9 1013 9 14.48406 0 0
1:53 am 01:53 Clear 58 14.4 51 10.6 78 78 Calm 29.91 1013 9 14.48406 0 0
2:53 am 02:53 Clear 56 13.3 48 8.9 75 75 N 3 6 29.91 1013 10 16.0934 0 0
3:53 am 03:53 Clear 56 13.3 48 8.9 75 75 Calm 29.92 1013 10 16.0934 0 0
4:53 am 04:53 Clear 55 12.8 47 8.3 74 74 N 5 7 29.93 1014 10 16.0934 0 0
5:53 am 05:53 Clear 53 11.7 47 8.3 80 80 W 5 7 29.96 1015 10 16.0934 0 0
6:53 am 06:53 Sunny 53 11.7 47 8.3 80 80 NNW 5 7 30 1016 10 16.0934 0 0
7:53 am 07:53 Sunny 62 16.7 48 8.9 60 60 NNW 3 6 30 1016 10 16.0934 0 0
8:53 am 08:53 Sunny 70 21.1 52 11.1 53 53 WNW 5 7 30 1016 10 16.0934 0 0
9:53 am 09:53 Sunny 79 26.1 50 10 36 36 VRB 5 7 29.98 1015 10 16.0934 0 0
10:53 am 10:53 Sunny 85 29.4 49 9.4 29 29 W 6 9 29.98 1015 10 16.0934 0 0
11:53 am 11:53 Sunny 88 31.1 48 8.9 25 25 VRB 6 9 29.98 1015 10 16.0934 0 0
12:53 pm 12:53 Sunny 91 32.8 47 8.3 22 22 WNW 3 6 29.96 1015 10 16.0934 0 0
1:53 pm 13:53 Sunny 94 34.4 47 8.3 20 20 VRB 6 9 29.95 1014 10 16.0934 0 0
2:53 pm 14:53 Sunny 94 34.4 47 8.3 20 20 VRB 5 7 29.93 1014 10 16.0934 0 0
3:53 pm 15:53 Sunny 94 34.4 45 7.2 18 18 Calm 29.93 1014 10 16.0934 0 0
4:53 pm 16:53 Sunny 90 32.2 51 10.6 26 26 E 10 17 29.95 1014 10 16.0934 0 0
5:53 pm 17:53 Sunny 88 31.1 51 10.6 28 28 ESE 5 7 29.95 1014 10 16.0934 0 0
6:53 pm 18:53 Mostly Sunny 83 28.3 54 12.2 37 37 SW 13 20 29.98 1015 10 16.0934 0 0
7:53 pm 19:53 Partly Cloudy 82 27.8 48 8.9 31 31 WNW 17 28 30 1016 10 16.0934 0 0
8:53 pm 20:53 Cloudy 81 27.2 48 8.9 32 32 W 17 28 29.99 1016 10 16.0934 0 0
9:53 pm 21:53 Mostly Clear 75 23.9 51 10.6 43 43 Calm 30 1016 10 16.0934 0 0
10:53 pm 22:53 Partly Cloudy 73 22.8 52 11.1 48 48 NNW 9 15 30 1016 10 16.0934 0 0
11:53 pm 23:53 Mostly Cloudy 73 22.8 53 11.7 50 50 Calm 30 1016 10 16.0934 0 0

Powered by AerisWeather